createdAt,value
2019-02-28T00:01:43.202Z,44.10
2019-02-28T00:04:11.108Z,43.70
2019-02-28T00:06:38.951Z,44.37
2019-02-28T00:09:08.903Z,47.07
2019-02-28T00:11:39.451Z,43.40
2019-02-28T00:14:08.223Z,46.47
2019-02-28T00:16:36.426Z,45.20
2019-02-28T00:19:04.740Z,46.83
2019-02-28T00:21:32.710Z,47.37
2019-02-28T00:24:00.682Z,46.17
2019-02-28T00:26:28.488Z,46.80
2019-02-28T00:28:56.961Z,47.10
2019-02-28T00:31:26.117Z,48.00
2019-02-28T00:33:55.064Z,48.17
2019-02-28T00:36:24.241Z,50.40
2019-02-28T00:38:52.030Z,48.20
2019-02-28T00:41:19.802Z,48.33
2019-02-28T00:43:48.055Z,48.90
2019-02-28T00:46:16.025Z,49.87
2019-02-28T00:48:44.391Z,49.07
2019-02-28T00:51:12.367Z,48.70
2019-02-28T00:53:40.490Z,48.03
2019-02-28T00:56:08.624Z,49.17
2019-02-28T00:58:36.674Z,47.67
2019-02-28T01:01:08.371Z,48.33
2019-02-28T01:03:36.486Z,47.37
2019-02-28T01:06:09.771Z,48.13
2019-02-28T01:08:34.806Z,48.80
2019-02-28T01:11:03.201Z,48.60
2019-02-28T01:13:33.373Z,49.50
2019-02-28T01:16:02.771Z,49.40
2019-02-28T01:18:34.467Z,50.20
2019-02-28T01:21:02.260Z,47.50
2019-02-28T01:23:30.249Z,49.43
2019-02-28T01:25:58.365Z,50.77
2019-02-28T01:28:27.645Z,47.37
2019-02-28T01:30:56.743Z,48.67
2019-02-28T01:33:25.640Z,48.37
2019-02-28T01:35:56.675Z,48.57
2019-02-28T01:38:25.179Z,50.50
2019-02-28T01:40:53.695Z,48.53
2019-02-28T01:43:21.584Z,49.33
2019-02-28T01:45:52.038Z,48.80
2019-02-28T01:48:22.601Z,53.27
2019-02-28T01:50:51.668Z,51.67
2019-02-28T01:53:19.761Z,51.20
2019-02-28T01:55:48.849Z,51.27
2019-02-28T01:58:18.816Z,51.37
2019-02-28T02:00:48.998Z,51.33
2019-02-28T02:03:16.994Z,48.90
2019-02-28T02:05:48.270Z,55.07
2019-02-28T02:08:17.832Z,50.90
2019-02-28T02:10:45.720Z,51.90
2019-02-28T02:13:13.791Z,53.83
2019-02-28T02:15:43.294Z,54.80
2019-02-28T02:18:11.064Z,54.07
2019-02-28T02:20:39.038Z,55.07
2019-02-28T02:23:06.964Z,53.83
2019-02-28T02:25:36.965Z,56.03
2019-02-28T02:28:04.422Z,53.40
2019-02-28T02:30:32.373Z,53.73
2019-02-28T02:33:00.152Z,54.67
2019-02-28T02:35:28.122Z,53.20
2019-02-28T02:37:55.920Z,55.50
2019-02-28T02:40:24.331Z,58.53
2019-02-28T02:42:54.173Z,57.00
2019-02-28T02:45:22.253Z,54.70
2019-02-28T02:47:50.029Z,56.30
2019-02-28T02:50:18.105Z,57.40
2019-02-28T02:52:46.077Z,58.23
2019-02-28T02:55:14.161Z,57.00
2019-02-28T02:57:43.150Z,60.40
2019-02-28T03:00:16.106Z,57.10
2019-02-28T03:02:43.917Z,57.83
2019-02-28T03:05:12.004Z,58.47
2019-02-28T03:07:39.894Z,57.83
2019-02-28T03:10:09.732Z,60.40
2019-02-28T03:12:37.498Z,61.03
2019-02-28T03:15:06.063Z,62.80
2019-02-28T03:17:33.992Z,59.73
2019-02-28T03:20:01.969Z,61.13
2019-02-28T03:22:30.416Z,69.63
2019-02-28T03:24:58.298Z,60.43
2019-02-28T03:27:26.232Z,60.20
2019-02-28T03:29:54.009Z,60.90
2019-02-28T03:32:21.782Z,61.97
2019-02-28T03:34:58.059Z,62.57
2019-02-28T03:37:19.391Z,65.33
2019-02-28T03:39:47.212Z,68.07
2019-02-28T03:42:15.073Z,66.27
2019-02-28T03:44:44.093Z,64.17
2019-02-28T03:47:12.236Z,65.87
2019-02-28T03:49:40.036Z,65.10
2019-02-28T03:52:07.834Z,67.43
2019-02-28T03:54:35.741Z,64.57
2019-02-28T03:57:03.527Z,65.67
2019-02-28T03:59:31.305Z,66.57
2019-02-28T04:01:59.258Z,70.63
2019-02-28T04:04:29.076Z,68.83
2019-02-28T04:06:56.828Z,72.00
2019-02-28T04:09:24.618Z,68.93
2019-02-28T04:11:52.794Z,69.80
2019-02-28T04:14:20.577Z,67.50
2019-02-28T04:16:52.710Z,69.97
2019-02-28T04:19:22.611Z,71.30
2019-02-28T04:21:47.973Z,68.53
2019-02-28T04:24:15.933Z,73.23
2019-02-28T04:26:43.706Z,75.43
2019-02-28T04:29:12.694Z,71.67
2019-02-28T04:31:41.573Z,72.40
2019-02-28T04:34:12.974Z,72.37
2019-02-28T04:36:39.206Z,78.50
2019-02-28T04:39:07.025Z,74.80
2019-02-28T04:41:35.063Z,72.47
2019-02-28T04:44:03.300Z,73.13
2019-02-28T04:46:31.801Z,78.17
2019-02-28T04:49:00.679Z,72.83
2019-02-28T04:51:28.608Z,77.03
2019-02-28T04:53:56.447Z,80.47
2019-02-28T04:56:24.402Z,80.40
2019-02-28T04:58:56.456Z,81.00
2019-02-28T05:01:23.643Z,73.47
2019-02-28T05:03:52.750Z,76.17
2019-02-28T05:06:21.182Z,80.20
2019-02-28T05:08:49.860Z,81.80
2019-02-28T05:11:17.794Z,80.30
2019-02-28T05:13:48.858Z,80.23
2019-02-28T05:16:16.676Z,88.93
2019-02-28T05:18:44.764Z,83.47
2019-02-28T05:21:12.531Z,81.73
2019-02-28T05:23:40.493Z,87.47
2019-02-28T05:26:09.877Z,86.40
2019-02-28T05:28:41.207Z,87.77
2019-02-28T05:31:08.731Z,88.10
2019-02-28T05:33:38.453Z,94.93
2019-02-28T05:36:06.419Z,88.93
2019-02-28T05:38:34.185Z,88.60
2019-02-28T05:41:03.148Z,93.03
2019-02-28T05:43:32.172Z,93.80
2019-02-28T05:46:00.717Z,90.57
2019-02-28T05:48:28.494Z,95.90
2019-02-28T05:50:56.499Z,97.77
2019-02-28T05:53:24.685Z,95.77
2019-02-28T05:55:52.855Z,98.53
2019-02-28T05:58:21.004Z,96.23
2019-02-28T06:00:50.651Z,95.97
2019-02-28T06:03:18.410Z,98.80
2019-02-28T06:05:47.084Z,102.60
2019-02-28T06:08:15.279Z,104.90
2019-02-28T06:10:43.056Z,101.30
2019-02-28T06:13:10.821Z,101.80
2019-02-28T06:15:38.732Z,100.97
2019-02-28T06:18:06.488Z,100.17
2019-02-28T06:20:34.277Z,95.77
2019-02-28T06:23:02.200Z,99.07
2019-02-28T06:25:31.125Z,99.80
2019-02-28T06:28:00.294Z,98.40
2019-02-28T06:30:28.078Z,98.50
2019-02-28T06:32:59.223Z,101.37
2019-02-28T06:35:25.956Z,103.10
2019-02-28T06:37:53.743Z,94.90
2019-02-28T06:40:22.604Z,96.00
2019-02-28T06:42:50.595Z,93.53
2019-02-28T06:45:18.379Z,90.00
2019-02-28T06:47:49.524Z,90.67
2019-02-28T06:50:16.360Z,87.40
2019-02-28T06:52:44.158Z,85.27
2019-02-28T06:55:15.875Z,84.03
2019-02-28T06:57:43.863Z,83.70
2019-02-28T07:00:13.515Z,83.23
2019-02-28T07:02:41.579Z,84.67
2019-02-28T07:05:09.527Z,82.53
2019-02-28T07:07:37.305Z,84.00
2019-02-28T07:10:09.624Z,81.40
2019-02-28T07:12:36.955Z,78.77
2019-02-28T07:15:05.527Z,85.10
2019-02-28T07:17:33.483Z,81.43
2019-02-28T07:20:03.135Z,86.97
2019-02-28T07:22:31.015Z,81.10
2019-02-28T07:24:58.938Z,82.93
2019-02-28T07:27:29.729Z,79.73
2019-02-28T07:29:56.443Z,77.03
2019-02-28T07:32:26.154Z,79.47
2019-02-28T07:34:58.087Z,77.23
2019-02-28T07:37:25.147Z,75.93
2019-02-28T07:39:52.915Z,73.10
2019-02-28T07:42:20.678Z,72.83
2019-02-28T07:44:48.682Z,74.03
2019-02-28T07:47:17.525Z,73.23
2019-02-28T07:49:46.347Z,73.57
2019-02-28T07:52:14.119Z,71.97
2019-02-28T07:54:42.204Z,72.43
2019-02-28T07:57:09.991Z,74.87
2019-02-28T07:59:42.301Z,69.20
2019-02-28T08:02:07.646Z,64.57
2019-02-28T08:04:35.424Z,67.67
2019-02-28T08:07:03.572Z,70.50
2019-02-28T08:09:31.593Z,67.07
2019-02-28T08:11:59.382Z,67.87
2019-02-28T08:14:27.152Z,71.37
2019-02-28T08:16:55.085Z,69.97
2019-02-28T08:19:27.017Z,70.70
2019-02-28T08:21:54.020Z,68.67
2019-02-28T08:24:21.965Z,66.33
2019-02-28T08:26:50.692Z,63.77
2019-02-28T08:29:19.557Z,63.17
2019-02-28T08:31:47.328Z,67.07
2019-02-28T08:34:15.331Z,63.93
2019-02-28T08:36:43.881Z,65.37
2019-02-28T08:39:16.191Z,64.17
2019-02-28T08:41:44.454Z,62.60
2019-02-28T08:44:12.230Z,65.00
2019-02-28T08:46:40.149Z,62.67
2019-02-28T08:49:08.151Z,61.97
2019-02-28T08:51:35.964Z,64.60
2019-02-28T08:54:06.049Z,63.87
2019-02-28T08:56:37.813Z,65.30
2019-02-28T08:59:11.720Z,64.93
2019-02-28T09:01:40.046Z,63.20
2019-02-28T09:04:05.854Z,64.37
2019-02-28T09:06:33.786Z,64.10
2019-02-28T09:09:01.866Z,59.97
2019-02-28T09:11:29.660Z,57.93
2019-02-28T09:13:57.577Z,61.33
2019-02-28T09:16:25.591Z,61.27
2019-02-28T09:18:53.381Z,60.70
2019-02-28T09:21:21.190Z,63.67
2019-02-28T09:23:49.113Z,62.00
2019-02-28T09:26:16.891Z,62.33
2019-02-28T09:28:47.489Z,64.83
2019-02-28T09:31:14.519Z,61.53
2019-02-28T09:33:42.343Z,60.57
2019-02-28T09:36:10.292Z,60.83
2019-02-28T09:38:38.103Z,60.07
2019-02-28T09:41:06.040Z,61.67
2019-02-28T09:43:33.869Z,60.77
2019-02-28T09:46:03.057Z,62.60
2019-02-28T09:48:34.017Z,62.90
2019-02-28T09:51:00.925Z,59.70
2019-02-28T09:53:28.725Z,60.70
2019-02-28T09:55:57.760Z,62.33
2019-02-28T09:58:29.318Z,60.67
2019-02-28T10:00:57.212Z,63.40
2019-02-28T10:03:25.004Z,60.67
2019-02-28T10:05:52.935Z,58.07
2019-02-28T10:08:21.811Z,62.50
2019-02-28T10:10:52.485Z,58.97
2019-02-28T10:13:19.617Z,58.50
2019-02-28T10:15:47.544Z,61.53
2019-02-28T10:18:15.306Z,61.23
2019-02-28T10:20:43.254Z,57.53
2019-02-28T10:23:11.011Z,58.30
2019-02-28T10:25:43.360Z,55.30
2019-02-28T10:28:08.793Z,56.93
2019-02-28T10:30:37.901Z,51.20
2019-02-28T10:33:05.700Z,51.07
2019-02-28T10:35:36.683Z,51.37
2019-02-28T10:38:05.063Z,49.77
2019-02-28T10:40:33.061Z,49.00
2019-02-28T10:43:00.852Z,47.10
2019-02-28T10:45:28.952Z,47.10
2019-02-28T10:47:56.882Z,46.70
2019-02-28T10:50:25.948Z,43.53
2019-02-28T10:52:53.896Z,43.97
2019-02-28T10:55:22.464Z,43.67
2019-02-28T10:57:51.114Z,41.57
2019-02-28T11:00:29.484Z,41.13
2019-02-28T11:03:01.610Z,42.20
2019-02-28T11:05:31.268Z,40.47
2019-02-28T11:08:00.493Z,41.57
2019-02-28T11:10:35.417Z,43.10
2019-02-28T11:13:07.764Z,44.80
2019-02-28T11:15:35.741Z,45.27
2019-02-28T11:18:08.558Z,45.53
2019-02-28T11:20:36.374Z,49.70
2019-02-28T11:23:04.503Z,48.47
2019-02-28T11:25:35.528Z,53.37
2019-02-28T11:28:02.429Z,50.97
2019-02-28T11:30:30.569Z,54.63
2019-02-28T11:33:03.003Z,56.50
2019-02-28T11:35:30.947Z,54.67
2019-02-28T11:37:59.637Z,55.93
2019-02-28T11:40:28.568Z,57.63
2019-02-28T11:42:59.436Z,61.60
2019-02-28T11:45:27.684Z,60.40
2019-02-28T11:47:57.760Z,60.70
2019-02-28T11:50:25.674Z,58.13
2019-02-28T11:52:53.620Z,57.20
2019-02-28T11:55:21.746Z,58.43
2019-02-28T11:57:49.912Z,57.20
2019-02-28T12:00:21.076Z,54.30
2019-02-28T12:02:53.345Z,55.13
2019-02-28T12:05:18.939Z,55.27
2019-02-28T12:07:46.736Z,55.33
2019-02-28T12:10:14.661Z,49.53
2019-02-28T12:12:44.715Z,50.07
2019-02-28T12:15:14.304Z,48.27
2019-02-28T12:17:42.312Z,49.87
2019-02-28T12:20:11.875Z,44.03
2019-02-28T12:22:39.699Z,41.57
2019-02-28T12:25:10.420Z,39.57
2019-02-28T12:27:38.458Z,37.90
2019-02-28T12:30:11.069Z,38.50
2019-02-28T12:32:40.350Z,35.83
2019-02-28T12:35:08.930Z,31.67
2019-02-28T12:37:36.732Z,28.27
2019-02-28T12:40:10.043Z,30.13
2019-02-28T12:42:36.990Z,24.23
2019-02-28T12:45:09.029Z,19.10
2019-02-28T12:47:38.580Z,16.40
2019-02-28T12:50:08.805Z,12.97
2019-02-28T12:52:36.843Z,12.67
2019-02-28T12:55:06.680Z,12.37
2019-02-28T12:57:34.503Z,10.60
2019-02-28T13:00:04.723Z,10.30
2019-02-28T13:02:33.022Z,10.57
2019-02-28T13:05:00.823Z,11.30
2019-02-28T13:07:30.485Z,10.03
2019-02-28T13:09:58.691Z,11.23
2019-02-28T13:12:26.485Z,10.87
2019-02-28T13:14:54.839Z,11.30
2019-02-28T13:17:22.728Z,10.50
2019-02-28T13:19:53.206Z,9.10
2019-02-28T13:22:23.494Z,9.30
2019-02-28T13:24:50.299Z,10.00
2019-02-28T13:27:18.071Z,8.93
2019-02-28T13:29:46.037Z,8.57
2019-02-28T13:32:13.835Z,7.80
2019-02-28T13:34:41.784Z,6.80
2019-02-28T13:37:10.019Z,6.73
2019-02-28T13:39:38.026Z,6.77
2019-02-28T13:42:07.528Z,5.40
2019-02-28T13:44:36.326Z,5.87
2019-02-28T13:47:09.394Z,6.10
2019-02-28T13:49:36.177Z,6.73
2019-02-28T13:52:06.086Z,6.07
2019-02-28T13:54:34.001Z,5.97
2019-02-28T13:57:08.103Z,6.10
2019-02-28T13:59:31.888Z,5.40
2019-02-28T14:02:00.652Z,5.57
2019-02-28T14:04:28.662Z,7.10
2019-02-28T14:06:56.812Z,6.60
2019-02-28T14:09:24.921Z,6.20
2019-02-28T14:11:53.175Z,6.60
2019-02-28T14:14:22.278Z,7.87
2019-02-28T14:17:09.748Z,7.50
2019-02-28T14:19:37.815Z,7.13
2019-02-28T14:22:08.519Z,7.80
2019-02-28T14:24:35.308Z,8.67
2019-02-28T14:27:03.309Z,8.40
2019-02-28T14:29:31.075Z,8.70
2019-02-28T14:31:58.870Z,9.93
2019-02-28T14:34:27.220Z,7.70
2019-02-28T14:36:55.303Z,7.47
2019-02-28T14:39:23.076Z,8.20
2019-02-28T14:41:50.885Z,7.90
2019-02-28T14:44:18.823Z,8.53
2019-02-28T14:46:49.766Z,9.17
2019-02-28T14:49:18.297Z,9.87
2019-02-28T14:51:46.082Z,10.60
2019-02-28T14:54:14.085Z,10.80
2019-02-28T14:56:42.243Z,10.73
2019-02-28T14:59:11.018Z,10.00
2019-02-28T15:01:42.297Z,10.57
2019-02-28T15:04:10.217Z,10.90
2019-02-28T15:06:38.230Z,10.00
2019-02-28T15:09:15.903Z,10.87
2019-02-28T15:11:46.904Z,9.97
2019-02-28T15:14:13.987Z,9.93
2019-02-28T15:16:41.778Z,9.27
2019-02-28T15:19:10.836Z,7.60
2019-02-28T15:21:42.353Z,7.60
2019-02-28T15:24:09.726Z,7.30
2019-02-28T15:26:37.827Z,5.33
2019-02-28T15:29:05.597Z,4.50
2019-02-28T15:31:33.573Z,4.10
2019-02-28T15:34:02.292Z,3.70
2019-02-28T15:36:32.434Z,4.17
2019-02-28T15:39:00.260Z,5.70
2019-02-28T15:41:30.720Z,7.20
2019-02-28T15:43:58.017Z,7.10
2019-02-28T15:46:25.808Z,7.60
2019-02-28T15:48:53.761Z,7.47
2019-02-28T15:51:21.551Z,9.10
2019-02-28T15:53:50.355Z,8.57
2019-02-28T15:56:20.056Z,9.40
2019-02-28T15:58:48.000Z,9.17
2019-02-28T16:01:15.910Z,9.83
2019-02-28T16:03:43.988Z,10.23
2019-02-28T16:06:11.773Z,9.80
2019-02-28T16:08:41.915Z,9.93
2019-02-28T16:11:09.517Z,10.47
2019-02-28T16:13:37.316Z,9.67
2019-02-28T16:16:05.258Z,7.90
2019-02-28T16:18:33.267Z,9.00
2019-02-28T16:21:03.505Z,8.60
2019-02-28T16:23:31.082Z,7.97
2019-02-28T16:25:59.108Z,8.73
2019-02-28T16:28:26.887Z,8.03
2019-02-28T16:30:54.697Z,9.30
2019-02-28T16:33:24.715Z,9.83
2019-02-28T16:35:52.394Z,8.50
2019-02-28T16:38:20.189Z,8.20
2019-02-28T16:40:49.905Z,7.53
2019-02-28T16:43:20.819Z,7.63
2019-02-28T16:45:48.850Z,8.70
2019-02-28T16:48:16.917Z,8.40
2019-02-28T16:50:44.741Z,7.43
2019-02-28T16:53:16.163Z,8.63
2019-02-28T16:55:42.449Z,7.17
2019-02-28T16:58:10.461Z,7.33
2019-02-28T17:00:39.555Z,6.77
2019-02-28T17:03:08.388Z,8.50
2019-02-28T17:05:36.189Z,7.40
2019-02-28T17:08:04.394Z,7.70
2019-02-28T17:10:36.504Z,7.40
2019-02-28T17:13:42.995Z,8.30
2019-02-28T17:16:17.233Z,7.37
2019-02-28T17:18:45.052Z,7.50
2019-02-28T17:21:16.692Z,8.57
2019-02-28T17:23:45.267Z,8.03
2019-02-28T17:26:13.197Z,7.57
2019-02-28T17:29:04.420Z,9.00
2019-02-28T17:31:47.979Z,7.90
2019-02-28T17:34:23.692Z,8.60
2019-02-28T17:36:50.528Z,9.00
2019-02-28T17:39:18.422Z,9.73
2019-02-28T17:41:47.589Z,11.13
2019-02-28T17:45:15.587Z,14.03
2019-02-28T17:48:35.798Z,15.17
2019-02-28T17:51:32.848Z,17.33
2019-02-28T17:54:58.186Z,20.10
2019-02-28T17:57:59.777Z,23.80
2019-02-28T18:01:20.495Z,20.73
2019-02-28T18:04:20.982Z,14.93
2019-02-28T18:07:26.666Z,11.87
2019-02-28T18:10:55.773Z,9.73
2019-02-28T18:14:14.620Z,9.73
2019-02-28T18:17:55.932Z,8.00
2019-02-28T18:25:06.572Z,7.60
2019-02-28T18:28:27.352Z,7.37
2019-02-28T18:31:19.157Z,7.53
2019-02-28T18:33:54.194Z,8.03
2019-02-28T18:36:26.029Z,8.20
2019-02-28T18:38:54.194Z,8.20
2019-02-28T18:41:22.310Z,9.57
2019-02-28T18:43:50.308Z,10.67
2019-02-28T18:46:18.363Z,11.90
2019-02-28T18:48:51.275Z,12.00
2019-02-28T18:51:19.167Z,13.03
2019-02-28T18:53:47.196Z,13.70
2019-02-28T18:56:15.290Z,12.93
2019-02-28T18:58:43.343Z,13.37
2019-02-28T19:01:11.506Z,13.50
2019-02-28T19:03:39.336Z,15.60
2019-02-28T19:06:07.133Z,15.53
2019-02-28T19:08:35.227Z,14.87
2019-02-28T19:11:06.399Z,15.63
2019-02-28T19:13:34.365Z,15.87
2019-02-28T19:16:02.411Z,16.40
2019-02-28T19:18:30.311Z,16.20
2019-02-28T19:20:58.182Z,15.33
2019-02-28T19:23:28.277Z,16.47
2019-02-28T19:25:56.276Z,16.93
2019-02-28T19:28:24.061Z,15.70
2019-02-28T19:30:51.939Z,15.83
2019-02-28T19:33:20.001Z,14.70
2019-02-28T19:35:47.842Z,15.43
2019-02-28T19:38:15.822Z,14.20
2019-02-28T19:40:43.605Z,13.83
2019-02-28T19:43:11.864Z,14.23
2019-02-28T19:45:41.261Z,15.13
2019-02-28T19:48:10.839Z,14.33
2019-02-28T19:50:38.768Z,13.23
2019-02-28T19:53:06.730Z,14.33
2019-02-28T19:55:35.176Z,14.27
2019-02-28T19:58:03.070Z,12.97
2019-02-28T20:00:31.033Z,12.90
2019-02-28T20:02:59.003Z,13.37
2019-02-28T20:05:26.897Z,13.10
2019-02-28T20:07:54.716Z,12.53
2019-02-28T20:10:22.748Z,12.47
2019-02-28T20:12:50.556Z,10.93
2019-02-28T20:15:20.710Z,11.97
2019-02-28T20:17:48.612Z,12.30
2019-02-28T20:20:16.814Z,10.67
2019-02-28T20:22:44.817Z,11.57
2019-02-28T20:25:13.291Z,11.40
2019-02-28T20:27:41.274Z,11.53
2019-02-28T20:30:12.620Z,13.07
2019-02-28T20:32:40.652Z,13.43
2019-02-28T20:35:08.856Z,15.10
2019-02-28T20:37:36.803Z,16.87
2019-02-28T20:40:08.093Z,16.90
2019-02-28T20:42:36.101Z,18.63
2019-02-28T20:45:05.741Z,17.57
2019-02-28T20:47:33.507Z,16.87
2019-02-28T20:50:01.476Z,17.70
2019-02-28T20:52:29.286Z,19.43
2019-02-28T20:54:57.112Z,18.77
2019-02-28T20:57:25.090Z,16.20
2019-02-28T20:59:52.883Z,16.90
2019-02-28T21:02:22.054Z,16.13
2019-02-28T21:04:49.865Z,15.93
2019-02-28T21:07:17.988Z,15.03
2019-02-28T21:09:47.719Z,13.87
2019-02-28T21:12:15.513Z,14.93
2019-02-28T21:14:43.331Z,15.30
2019-02-28T21:17:11.351Z,13.60
2019-02-28T21:19:39.289Z,14.20
2019-02-28T21:22:07.185Z,13.50
2019-02-28T21:24:35.805Z,13.97
2019-02-28T21:27:03.929Z,13.90
2019-02-28T21:29:33.324Z,15.10
2019-02-28T21:32:01.321Z,14.17
2019-02-28T21:34:29.180Z,15.57
2019-02-28T21:36:59.163Z,14.37
2019-02-28T21:39:27.074Z,15.07
2019-02-28T21:41:54.874Z,15.90
2019-02-28T21:44:22.675Z,15.60
2019-02-28T21:46:50.598Z,15.10
2019-02-28T21:49:18.395Z,17.17
2019-02-28T21:51:46.165Z,15.20
2019-02-28T21:54:15.850Z,16.40
2019-02-28T21:56:43.998Z,15.13
2019-02-28T21:59:11.820Z,15.80
2019-02-28T22:01:39.767Z,15.80
2019-02-28T22:04:07.882Z,16.43
2019-02-28T22:06:35.821Z,15.47
2019-02-28T22:09:05.557Z,14.20
2019-02-28T22:11:33.350Z,15.43
2019-02-28T22:14:02.407Z,15.10
2019-02-28T22:16:30.340Z,16.30
2019-02-28T22:18:58.162Z,16.80
2019-02-28T22:21:26.113Z,15.67
2019-02-28T22:23:53.954Z,17.03
2019-02-28T22:26:22.155Z,14.67
2019-02-28T22:28:49.929Z,16.47
2019-02-28T22:31:43.970Z,16.93
2019-02-28T22:34:28.221Z,17.30
2019-02-28T22:36:57.326Z,17.13
2019-02-28T22:39:26.714Z,17.90
2019-02-28T22:41:54.579Z,17.30
2019-02-28T22:44:22.589Z,17.37
2019-02-28T22:46:50.363Z,17.90
2019-02-28T22:49:18.436Z,17.70
2019-02-28T22:51:46.418Z,18.80
2019-02-28T22:54:14.198Z,18.53
2019-02-28T22:56:41.982Z,18.47
2019-02-28T22:59:10.025Z,17.87
2019-02-28T23:01:40.051Z,20.50
2019-02-28T23:04:08.025Z,21.10
2019-02-28T23:06:35.861Z,18.60
2019-02-28T23:09:05.278Z,21.00
2019-02-28T23:11:33.284Z,22.53
2019-02-28T23:14:01.069Z,20.83
2019-02-28T23:16:28.844Z,19.63
2019-02-28T23:18:57.932Z,21.70
2019-02-28T23:21:25.726Z,22.93
2019-02-28T23:23:53.719Z,20.77
2019-02-28T23:26:25.960Z,23.10
2019-02-28T23:29:13.307Z,22.60
2019-02-28T23:32:16.016Z,23.57
2019-02-28T23:34:51.424Z,22.47
2019-02-28T23:37:19.451Z,24.53
2019-02-28T23:39:47.267Z,24.07
2019-02-28T23:42:15.044Z,25.07
2019-02-28T23:44:43.064Z,25.07
2019-02-28T23:47:11.017Z,24.90
2019-02-28T23:49:38.791Z,24.97
2019-02-28T23:52:06.765Z,27.33
2019-02-28T23:54:34.523Z,24.67
2019-02-28T23:57:02.334Z,26.43
2019-02-28T23:59:30.263Z,26.67
